createdAt,value
2023-03-31T00:01:54.528Z,1.00
2023-03-31T00:04:24.057Z,0.90
2023-03-31T00:06:54.533Z,1.47
2023-03-31T00:09:23.349Z,1.00
2023-03-31T00:11:52.708Z,1.00
2023-03-31T00:14:21.564Z,1.00
2023-03-31T00:16:50.598Z,1.00
2023-03-31T00:19:20.772Z,1.43
2023-03-31T00:21:51.027Z,0.70
2023-03-31T00:24:19.441Z,0.70
2023-03-31T00:26:48.231Z,0.95
2023-03-31T00:29:17.123Z,1.65
2023-03-31T00:31:46.100Z,0.95
2023-03-31T00:34:14.660Z,1.10
2023-03-31T00:36:48.217Z,0.60
2023-03-31T00:39:18.179Z,0.60
2023-03-31T00:41:47.407Z,1.42
2023-03-31T00:44:18.454Z,0.93
2023-03-31T00:47:07.847Z,1.05
2023-03-31T00:49:41.063Z,1.02
2023-03-31T00:52:21.773Z,1.50
2023-03-31T00:54:51.992Z,1.42
2023-03-31T00:57:20.764Z,1.07
2023-03-31T00:59:53.539Z,1.13
2023-03-31T01:02:24.513Z,1.10
2023-03-31T01:04:54.744Z,1.27
2023-03-31T01:07:25.596Z,2.37
2023-03-31T01:09:55.583Z,1.17
2023-03-31T01:12:24.589Z,1.57
2023-03-31T01:14:53.150Z,0.87
2023-03-31T01:17:22.627Z,0.90
2023-03-31T01:20:14.458Z,1.35
2023-03-31T01:23:00.018Z,0.98
2023-03-31T01:25:32.735Z,1.00
2023-03-31T01:28:05.902Z,1.40
2023-03-31T01:30:43.024Z,1.60
2023-03-31T01:33:12.889Z,1.03
2023-03-31T01:35:59.385Z,0.73
2023-03-31T01:38:29.476Z,1.23
2023-03-31T01:40:59.577Z,1.27
2023-03-31T01:43:32.304Z,1.10
2023-03-31T01:46:03.872Z,0.70
2023-03-31T01:48:36.910Z,1.97
2023-03-31T01:51:06.729Z,1.53
2023-03-31T01:53:43.106Z,1.70
2023-03-31T01:56:21.959Z,1.70
2023-03-31T01:58:52.006Z,1.30
2023-03-31T02:01:30.502Z,1.50
2023-03-31T02:04:07.600Z,1.42
2023-03-31T02:06:37.646Z,1.73
2023-03-31T02:09:07.751Z,1.20
2023-03-31T02:11:38.294Z,1.55
2023-03-31T02:14:08.391Z,1.37
2023-03-31T02:16:40.381Z,2.00
2023-03-31T02:19:10.576Z,1.73
2023-03-31T02:21:40.250Z,1.53
2023-03-31T02:24:10.300Z,1.10
2023-03-31T02:26:40.366Z,1.97
2023-03-31T02:29:09.387Z,1.50
2023-03-31T02:31:39.478Z,1.73
2023-03-31T02:34:08.524Z,1.70
2023-03-31T02:36:37.388Z,1.63
2023-03-31T02:39:13.092Z,1.70
2023-03-31T02:41:42.741Z,1.70
2023-03-31T02:44:11.779Z,2.13
2023-03-31T02:46:40.335Z,1.43
2023-03-31T02:49:09.623Z,1.93
2023-03-31T02:51:39.652Z,1.57
2023-03-31T02:54:18.157Z,1.53
2023-03-31T02:57:05.965Z,1.40
2023-03-31T02:59:36.098Z,1.33
2023-03-31T03:02:06.348Z,2.00
2023-03-31T03:04:39.164Z,1.63
2023-03-31T03:07:21.213Z,1.90
2023-03-31T03:10:00.888Z,1.47
2023-03-31T03:12:47.600Z,1.83
2023-03-31T03:15:17.646Z,1.97
2023-03-31T03:17:47.513Z,1.90
2023-03-31T03:20:16.485Z,2.07
2023-03-31T03:22:45.036Z,2.03
2023-03-31T03:25:14.980Z,2.37
2023-03-31T03:27:43.492Z,2.03
2023-03-31T03:30:12.578Z,2.50
2023-03-31T03:32:41.856Z,2.63
2023-03-31T03:35:10.876Z,2.37
2023-03-31T03:37:39.482Z,2.53
2023-03-31T03:40:08.815Z,1.27
2023-03-31T03:42:38.320Z,1.75
2023-03-31T03:45:07.569Z,1.90
2023-03-31T03:47:36.495Z,1.80
2023-03-31T03:50:05.749Z,2.00
2023-03-31T03:52:34.348Z,1.83
2023-03-31T03:55:03.589Z,1.52
2023-03-31T03:57:32.465Z,2.05
2023-03-31T04:00:01.128Z,1.80
2023-03-31T04:02:31.250Z,1.73
2023-03-31T04:05:00.261Z,1.90
2023-03-31T04:07:28.861Z,1.70
2023-03-31T04:09:57.334Z,2.30
2023-03-31T04:12:26.042Z,1.53
2023-03-31T04:14:54.572Z,1.77
2023-03-31T04:17:25.041Z,2.08
2023-03-31T04:19:53.621Z,1.87
2023-03-31T04:22:22.112Z,1.83
2023-03-31T04:24:52.266Z,1.90
2023-03-31T04:27:21.100Z,1.95
2023-03-31T04:29:51.612Z,1.70
2023-03-31T04:32:21.591Z,2.13
2023-03-31T04:34:54.591Z,2.17
2023-03-31T04:37:25.029Z,2.17
2023-03-31T04:39:54.502Z,1.93
2023-03-31T04:42:24.334Z,2.13
2023-03-31T04:44:52.896Z,2.40
2023-03-31T04:47:21.233Z,1.70
2023-03-31T04:49:49.723Z,1.70
2023-03-31T04:52:18.325Z,2.33
2023-03-31T04:54:46.800Z,2.40
2023-03-31T04:57:15.894Z,2.37
2023-03-31T04:59:44.475Z,2.03
2023-03-31T05:02:12.764Z,1.90
2023-03-31T05:04:41.342Z,1.90
2023-03-31T05:07:09.840Z,2.08
2023-03-31T05:09:38.343Z,2.13
2023-03-31T05:12:06.749Z,1.90
2023-03-31T05:14:35.543Z,2.52
2023-03-31T05:17:04.161Z,3.50
2023-03-31T05:19:32.637Z,3.37
2023-03-31T05:22:01.544Z,3.45
2023-03-31T05:24:30.159Z,3.37
2023-03-31T05:26:58.971Z,3.15
2023-03-31T05:29:27.563Z,2.50
2023-03-31T05:31:56.219Z,3.33
2023-03-31T05:34:25.163Z,3.02
2023-03-31T05:36:53.947Z,2.30
2023-03-31T05:39:22.869Z,2.10
2023-03-31T05:41:51.674Z,2.35
2023-03-31T05:44:20.746Z,2.10
2023-03-31T05:46:49.365Z,2.47
2023-03-31T05:49:17.791Z,2.30
2023-03-31T05:51:46.729Z,2.03
2023-03-31T05:54:15.552Z,1.90
2023-03-31T05:56:44.477Z,1.85
2023-03-31T05:59:14.998Z,1.80
2023-03-31T06:01:43.574Z,2.27
2023-03-31T06:04:11.947Z,2.13
2023-03-31T06:06:40.547Z,1.90
2023-03-31T06:09:09.145Z,2.20
2023-03-31T06:11:38.061Z,1.90
2023-03-31T06:14:06.589Z,2.03
2023-03-31T06:16:35.297Z,2.40
2023-03-31T06:19:04.802Z,2.10
2023-03-31T06:21:33.533Z,2.47
2023-03-31T06:24:02.704Z,2.00
2023-03-31T06:26:31.364Z,2.10
2023-03-31T06:28:59.856Z,1.33
2023-03-31T06:31:28.827Z,2.10
2023-03-31T06:33:57.701Z,2.27
2023-03-31T06:36:26.414Z,1.70
2023-03-31T06:38:55.140Z,2.00
2023-03-31T06:41:24.105Z,1.80
2023-03-31T06:43:52.600Z,1.60
2023-03-31T06:46:21.396Z,1.93
2023-03-31T06:48:49.981Z,2.20
2023-03-31T06:51:18.487Z,1.63
2023-03-31T06:53:47.291Z,1.90
2023-03-31T06:56:15.492Z,2.17
2023-03-31T06:58:43.981Z,1.87
2023-03-31T07:01:12.724Z,1.90
2023-03-31T07:03:41.666Z,2.02
2023-03-31T07:06:10.455Z,2.93
2023-03-31T07:08:38.979Z,2.17
2023-03-31T07:11:07.416Z,1.87
2023-03-31T07:13:36.330Z,2.37
2023-03-31T07:16:07.257Z,2.00
2023-03-31T07:21:09.425Z,1.65
2023-03-31T07:23:36.332Z,1.80
2023-03-31T07:26:04.763Z,1.93
2023-03-31T07:28:33.258Z,1.87
2023-03-31T07:31:01.767Z,1.63
2023-03-31T07:33:30.375Z,1.73
2023-03-31T07:36:10.549Z,1.77
2023-03-31T07:38:29.276Z,1.75
2023-03-31T07:41:07.640Z,1.72
2023-03-31T07:43:28.445Z,2.03
2023-03-31T07:45:57.000Z,2.17
2023-03-31T07:48:27.209Z,1.60
2023-03-31T07:50:56.167Z,2.43
2023-03-31T07:53:26.187Z,2.53
2023-03-31T07:55:54.717Z,1.80
2023-03-31T07:58:23.129Z,2.20
2023-03-31T08:00:51.677Z,2.03
2023-03-31T08:03:20.242Z,2.47
2023-03-31T08:05:52.297Z,2.10
2023-03-31T08:08:21.473Z,2.30
2023-03-31T08:10:50.028Z,2.73
2023-03-31T08:13:18.541Z,2.00
2023-03-31T08:15:47.132Z,1.67
2023-03-31T08:18:16.497Z,2.00
2023-03-31T08:20:46.186Z,1.70
2023-03-31T08:23:15.434Z,1.87
2023-03-31T08:25:43.958Z,1.63
2023-03-31T08:28:14.048Z,1.60
2023-03-31T08:30:42.924Z,2.37
2023-03-31T08:33:14.141Z,1.93
2023-03-31T08:35:42.732Z,1.97
2023-03-31T08:38:11.414Z,2.50
2023-03-31T08:40:41.417Z,2.50
2023-03-31T08:43:11.135Z,2.10
2023-03-31T08:45:41.354Z,2.33
2023-03-31T08:48:25.177Z,2.67
2023-03-31T08:50:55.304Z,1.80
2023-03-31T08:53:25.009Z,2.20
2023-03-31T08:55:55.028Z,1.90
2023-03-31T08:58:27.808Z,2.20
2023-03-31T09:00:58.099Z,2.02
2023-03-31T09:03:34.194Z,1.97
2023-03-31T09:06:07.809Z,1.77
2023-03-31T09:08:37.430Z,2.00
2023-03-31T09:11:11.908Z,1.80
2023-03-31T09:13:42.258Z,1.50
2023-03-31T09:16:17.864Z,1.57
2023-03-31T09:18:48.058Z,1.43
2023-03-31T09:21:21.518Z,1.70
2023-03-31T09:23:51.664Z,1.57
2023-03-31T09:26:22.668Z,1.60
2023-03-31T09:28:51.981Z,1.30
2023-03-31T09:31:21.505Z,1.10
2023-03-31T09:33:51.750Z,1.80
2023-03-31T09:36:23.187Z,1.70
2023-03-31T09:38:52.246Z,1.10
2023-03-31T09:41:21.463Z,1.27
2023-03-31T09:43:51.237Z,1.40
2023-03-31T09:46:21.557Z,1.30
2023-03-31T09:48:55.444Z,1.02
2023-03-31T09:51:25.668Z,1.53
2023-03-31T09:56:41.054Z,1.27
2023-03-31T09:59:11.180Z,1.37
2023-03-31T10:01:39.442Z,1.63
2023-03-31T10:04:09.713Z,1.73
2023-03-31T10:06:40.021Z,1.67
2023-03-31T10:09:10.185Z,1.90
2023-03-31T10:11:39.642Z,2.17
2023-03-31T10:14:09.736Z,1.50
2023-03-31T10:16:47.404Z,1.40
2023-03-31T10:19:29.232Z,1.33
2023-03-31T10:22:05.883Z,1.70
2023-03-31T10:24:38.590Z,2.00
2023-03-31T10:27:08.704Z,1.33
2023-03-31T10:29:38.508Z,2.30
2023-03-31T10:32:11.292Z,1.27
2023-03-31T10:34:41.639Z,1.93
2023-03-31T10:37:11.380Z,0.97
2023-03-31T10:39:39.970Z,1.53
2023-03-31T10:42:08.509Z,1.10
2023-03-31T10:44:38.837Z,1.32
2023-03-31T10:47:08.856Z,1.50
2023-03-31T10:49:40.695Z,1.43
2023-03-31T10:52:19.742Z,1.03
2023-03-31T10:54:49.615Z,1.27
2023-03-31T10:57:19.388Z,1.23
2023-03-31T10:59:59.434Z,1.27
2023-03-31T11:02:41.648Z,0.80
2023-03-31T11:05:13.008Z,1.13
2023-03-31T11:07:46.704Z,0.95
2023-03-31T11:10:22.431Z,0.63
2023-03-31T11:13:01.664Z,0.97
2023-03-31T11:15:35.303Z,0.80
2023-03-31T11:18:08.406Z,1.03
2023-03-31T11:20:47.645Z,1.70
2023-03-31T11:23:32.798Z,1.10
2023-03-31T11:26:02.929Z,1.13
2023-03-31T11:28:33.280Z,1.30
2023-03-31T11:31:09.188Z,1.10
2023-03-31T11:33:55.743Z,1.13
2023-03-31T11:36:42.427Z,1.10
2023-03-31T11:39:28.801Z,1.20
2023-03-31T11:42:01.518Z,1.07
2023-03-31T11:44:31.572Z,1.17
2023-03-31T11:47:01.763Z,0.97
2023-03-31T11:49:31.925Z,1.07
2023-03-31T11:52:02.240Z,1.62
2023-03-31T11:54:32.008Z,1.63
2023-03-31T11:57:02.389Z,1.20
2023-03-31T11:59:32.250Z,1.33
2023-03-31T12:02:02.106Z,1.20
2023-03-31T12:04:47.056Z,1.10
2023-03-31T12:07:33.508Z,1.10
2023-03-31T12:10:09.501Z,1.60
2023-03-31T12:12:39.533Z,1.83
2023-03-31T12:15:09.275Z,1.23
2023-03-31T12:17:40.653Z,0.93
2023-03-31T12:20:16.620Z,0.95
2023-03-31T12:22:45.886Z,0.87
2023-03-31T12:25:18.326Z,0.70
2023-03-31T12:27:53.552Z,0.90
2023-03-31T12:30:55.020Z,0.90
2023-03-31T12:36:50.305Z,0.80
2023-03-31T12:39:41.840Z,0.62
2023-03-31T12:42:29.955Z,0.40
2023-03-31T12:45:21.885Z,0.83
2023-03-31T12:48:04.103Z,0.47
2023-03-31T12:50:50.925Z,0.50
2023-03-31T12:53:23.711Z,0.47
2023-03-31T12:55:53.794Z,0.90
2023-03-31T12:58:33.846Z,1.00
2023-03-31T13:01:07.591Z,0.50
2023-03-31T13:03:37.880Z,0.93
2023-03-31T13:06:08.858Z,0.67
2023-03-31T13:08:51.454Z,0.98
2023-03-31T13:11:21.049Z,1.03
2023-03-31T13:14:00.311Z,0.68
2023-03-31T13:16:23.958Z,1.70
2023-03-31T13:18:53.598Z,0.80
2023-03-31T13:21:23.276Z,1.40
2023-03-31T13:23:52.414Z,0.87
2023-03-31T13:26:40.596Z,0.87
2023-03-31T13:29:18.447Z,0.70
2023-03-31T13:32:04.318Z,1.25
2023-03-31T13:34:37.110Z,1.17
2023-03-31T13:37:16.278Z,0.90
2023-03-31T13:40:04.410Z,0.83
2023-03-31T13:42:46.473Z,1.23
2023-03-31T13:45:16.268Z,1.33
2023-03-31T13:48:06.066Z,1.50
2023-03-31T13:50:52.904Z,1.07
2023-03-31T13:53:22.673Z,1.13
2023-03-31T13:55:59.416Z,2.00
2023-03-31T13:58:35.287Z,1.77
2023-03-31T14:01:22.649Z,1.80
2023-03-31T14:04:09.214Z,1.77
2023-03-31T14:06:42.334Z,2.70
2023-03-31T14:09:15.027Z,3.50
2023-03-31T14:11:43.534Z,2.77
2023-03-31T14:14:14.464Z,3.10
2023-03-31T14:16:45.493Z,2.70
2023-03-31T14:19:18.304Z,2.05
2023-03-31T14:21:50.342Z,2.07
2023-03-31T14:24:23.065Z,1.90
2023-03-31T14:26:58.892Z,1.70
2023-03-31T14:29:40.942Z,1.70
2023-03-31T14:32:19.904Z,2.20
2023-03-31T14:34:50.835Z,1.50
2023-03-31T14:37:21.069Z,1.75
2023-03-31T14:39:56.274Z,2.22
2023-03-31T14:42:27.050Z,2.42
2023-03-31T14:44:57.032Z,1.62
2023-03-31T14:47:28.585Z,2.57
2023-03-31T14:50:02.098Z,1.73
2023-03-31T14:52:32.172Z,2.10
2023-03-31T14:55:02.237Z,3.72
2023-03-31T14:57:38.054Z,5.83
2023-03-31T15:00:08.312Z,6.47
2023-03-31T15:02:38.230Z,7.30
2023-03-31T15:05:09.588Z,7.13
2023-03-31T15:07:41.894Z,4.97
2023-03-31T15:10:11.980Z,4.30
2023-03-31T15:12:41.494Z,4.93
2023-03-31T15:15:11.365Z,4.65
2023-03-31T15:17:41.309Z,4.45
2023-03-31T15:20:28.417Z,3.43
2023-03-31T15:22:57.219Z,2.87
2023-03-31T15:25:27.502Z,1.80
2023-03-31T15:27:58.021Z,2.25
2023-03-31T15:30:28.073Z,1.53
2023-03-31T15:33:11.134Z,0.78
2023-03-31T15:35:28.753Z,0.90
2023-03-31T15:37:59.528Z,1.00
2023-03-31T15:40:29.479Z,0.93
2023-03-31T15:43:06.192Z,0.80
2023-03-31T15:45:33.945Z,0.93
2023-03-31T15:48:03.238Z,1.00
2023-03-31T15:50:33.052Z,0.93
2023-03-31T15:53:03.793Z,1.00
2023-03-31T15:55:35.305Z,0.87
2023-03-31T15:58:04.052Z,0.90
2023-03-31T16:00:34.206Z,0.70
2023-03-31T16:03:03.842Z,0.87
2023-03-31T16:05:53.342Z,0.53
2023-03-31T16:08:14.220Z,1.20
2023-03-31T16:10:43.213Z,0.90
2023-03-31T16:13:14.230Z,1.20
2023-03-31T16:15:46.929Z,1.50
2023-03-31T16:18:19.772Z,1.30
2023-03-31T16:20:53.080Z,2.00
2023-03-31T16:23:22.924Z,1.43
2023-03-31T16:25:51.319Z,1.07
2023-03-31T16:28:21.084Z,0.93
2023-03-31T16:30:49.466Z,0.77
2023-03-31T16:33:19.225Z,0.90
2023-03-31T16:35:50.425Z,0.53
2023-03-31T16:38:19.274Z,1.07
2023-03-31T16:40:49.092Z,0.73
2023-03-31T16:43:18.421Z,1.30
2023-03-31T16:45:48.103Z,1.17
2023-03-31T16:48:17.893Z,0.70
2023-03-31T16:50:48.177Z,1.50
2023-03-31T16:53:18.787Z,1.17
2023-03-31T16:55:47.077Z,1.60
2023-03-31T16:58:16.258Z,1.80
2023-03-31T17:00:45.455Z,1.40
2023-03-31T17:03:15.542Z,1.40
2023-03-31T17:05:45.366Z,1.50
2023-03-31T17:08:14.487Z,1.50
2023-03-31T17:10:43.285Z,0.97
2023-03-31T17:13:11.650Z,1.27
2023-03-31T17:15:40.170Z,1.67
2023-03-31T17:18:08.859Z,0.83
2023-03-31T17:20:37.952Z,0.90
2023-03-31T17:23:07.711Z,1.27
2023-03-31T17:25:36.255Z,0.90
2023-03-31T17:28:05.180Z,0.97
2023-03-31T17:30:35.243Z,1.00
2023-03-31T17:33:04.094Z,0.80
2023-03-31T17:35:33.542Z,0.87
2023-03-31T17:38:02.222Z,0.93
2023-03-31T17:40:33.567Z,0.80
2023-03-31T17:45:32.152Z,0.90
2023-03-31T17:48:01.286Z,0.70
2023-03-31T17:50:29.789Z,0.97
2023-03-31T17:52:58.624Z,0.95
2023-03-31T17:55:27.396Z,1.63
2023-03-31T17:57:56.550Z,1.92
2023-03-31T18:00:25.331Z,1.87
2023-03-31T18:02:55.343Z,2.62
2023-03-31T18:05:23.948Z,3.20
2023-03-31T18:07:53.461Z,2.37
2023-03-31T18:10:22.571Z,2.93
2023-03-31T18:12:51.095Z,2.60
2023-03-31T18:15:19.978Z,3.07
2023-03-31T18:17:48.816Z,2.43
2023-03-31T18:20:18.217Z,2.37
2023-03-31T18:22:46.927Z,2.53
2023-03-31T18:25:15.671Z,2.00
2023-03-31T18:27:44.549Z,2.20
2023-03-31T18:30:13.930Z,1.85
2023-03-31T18:32:43.543Z,1.93
2023-03-31T18:35:12.228Z,1.80
2023-03-31T18:37:40.824Z,1.80
2023-03-31T18:40:09.626Z,2.00
2023-03-31T18:42:38.594Z,2.08
2023-03-31T18:45:07.287Z,1.57
2023-03-31T18:47:39.848Z,1.92
2023-03-31T18:50:09.138Z,1.90
2023-03-31T18:52:37.734Z,1.80
2023-03-31T18:55:06.617Z,2.10
2023-03-31T18:57:35.425Z,1.60
2023-03-31T19:00:06.234Z,1.75
2023-03-31T19:02:34.651Z,1.67
2023-03-31T19:05:03.885Z,2.20
2023-03-31T19:07:33.182Z,1.85
2023-03-31T19:10:01.866Z,1.90
2023-03-31T19:12:30.379Z,1.93
2023-03-31T19:14:59.255Z,1.80
2023-03-31T19:17:28.275Z,2.02
2023-03-31T19:19:57.227Z,2.03
2023-03-31T19:22:27.627Z,2.20
2023-03-31T19:24:56.096Z,2.43
2023-03-31T19:27:24.678Z,2.10
2023-03-31T19:29:53.261Z,2.17
2023-03-31T19:32:21.663Z,1.70
2023-03-31T19:34:52.092Z,2.03
2023-03-31T19:37:21.126Z,1.70
2023-03-31T19:39:49.640Z,2.20
2023-03-31T19:42:18.164Z,2.10
2023-03-31T19:44:46.892Z,2.07
2023-03-31T19:47:16.149Z,2.30
2023-03-31T19:49:44.841Z,2.13
2023-03-31T19:52:13.200Z,2.20
2023-03-31T19:54:42.140Z,2.63
2023-03-31T19:57:11.609Z,2.43
2023-03-31T19:59:40.196Z,2.20
2023-03-31T20:02:10.423Z,2.03
2023-03-31T20:04:38.934Z,2.40
2023-03-31T20:07:07.726Z,3.33
2023-03-31T20:09:36.362Z,3.17
2023-03-31T20:12:05.534Z,2.72
2023-03-31T20:14:34.363Z,2.87
2023-03-31T20:17:04.632Z,2.40
2023-03-31T20:19:33.272Z,4.87
2023-03-31T20:22:02.232Z,3.98
2023-03-31T20:24:31.112Z,3.67
2023-03-31T20:27:00.112Z,3.50
2023-03-31T20:29:28.576Z,2.37
2023-03-31T20:31:57.274Z,4.30
2023-03-31T20:34:27.388Z,3.93
2023-03-31T20:36:57.070Z,3.33
2023-03-31T20:39:26.008Z,3.60
2023-03-31T20:41:55.087Z,2.60
2023-03-31T20:44:23.297Z,2.70
2023-03-31T20:46:52.368Z,2.17
2023-03-31T20:49:20.913Z,1.20
2023-03-31T20:51:49.493Z,1.10
2023-03-31T20:54:18.423Z,0.70
2023-03-31T20:56:47.197Z,0.70
2023-03-31T20:59:16.036Z,0.67
2023-03-31T21:01:46.788Z,0.82
2023-03-31T21:04:16.928Z,0.40
2023-03-31T21:06:46.705Z,0.30
2023-03-31T21:09:15.855Z,0.30
2023-03-31T21:11:44.751Z,0.10
2023-03-31T21:14:16.876Z,0.20
2023-03-31T21:16:45.446Z,0.20
2023-03-31T21:19:13.716Z,0.20
2023-03-31T21:21:43.057Z,0.20
2023-03-31T21:24:12.357Z,0.30
2023-03-31T21:26:41.113Z,0.20
2023-03-31T21:29:09.470Z,0.23
2023-03-31T21:31:38.158Z,0.30
2023-03-31T21:34:06.772Z,0.30
2023-03-31T21:36:35.244Z,0.30
2023-03-31T21:39:05.001Z,0.20
2023-03-31T21:41:33.496Z,0.60
2023-03-31T21:44:03.183Z,0.20
2023-03-31T21:46:33.113Z,0.40
2023-03-31T21:49:02.683Z,0.90
2023-03-31T21:51:31.428Z,0.83
2023-03-31T21:53:59.911Z,1.40
2023-03-31T21:56:32.105Z,0.87
2023-03-31T21:58:58.778Z,0.63
2023-03-31T22:01:27.615Z,0.93
2023-03-31T22:03:56.142Z,0.97
2023-03-31T22:06:24.643Z,0.80
2023-03-31T22:08:55.460Z,0.47
2023-03-31T22:11:24.276Z,0.93
2023-03-31T22:13:52.791Z,0.30
2023-03-31T22:16:22.624Z,0.40
2023-03-31T22:18:52.611Z,0.50
2023-03-31T22:21:22.702Z,0.70
2023-03-31T22:23:51.839Z,0.90
2023-03-31T22:26:20.527Z,0.40
2023-03-31T22:28:49.175Z,0.70
2023-03-31T22:31:17.717Z,0.80
2023-03-31T22:33:46.247Z,0.40
2023-03-31T22:36:15.045Z,0.90
2023-03-31T22:38:43.611Z,0.77
2023-03-31T22:41:12.125Z,0.40
2023-03-31T22:43:40.948Z,0.80
2023-03-31T22:46:09.891Z,0.70
2023-03-31T22:48:39.153Z,0.62
2023-03-31T22:51:08.788Z,0.70
2023-03-31T22:53:37.606Z,0.62
2023-03-31T22:56:07.005Z,0.40
2023-03-31T22:58:35.999Z,0.60
2023-03-31T23:01:05.776Z,0.68
2023-03-31T23:03:34.423Z,0.90
2023-03-31T23:06:04.938Z,1.10
2023-03-31T23:08:35.382Z,0.53
2023-03-31T23:11:06.194Z,1.05
2023-03-31T23:13:34.777Z,0.50
2023-03-31T23:16:08.476Z,1.02
2023-03-31T23:18:38.784Z,0.63
2023-03-31T23:21:07.376Z,0.63
2023-03-31T23:23:36.176Z,0.75
2023-03-31T23:26:06.294Z,0.70
2023-03-31T23:28:36.277Z,1.27
2023-03-31T23:31:05.143Z,0.60
2023-03-31T23:33:34.211Z,1.05
2023-03-31T23:36:04.212Z,0.80
2023-03-31T23:38:32.819Z,1.00
2023-03-31T23:41:01.704Z,1.07
2023-03-31T23:43:30.504Z,1.17
2023-03-31T23:45:59.325Z,1.72
2023-03-31T23:48:27.928Z,1.10
2023-03-31T23:50:56.692Z,1.50
2023-03-31T23:53:25.490Z,1.02
2023-03-31T23:55:58.311Z,1.00
2023-03-31T23:58:26.965Z,1.37
